createdAt,value
2018-03-28T09:43:12.279Z,12.60
2018-03-28T09:45:39.352Z,12.80
2018-03-28T09:48:06.415Z,13.70
2018-03-28T09:50:33.525Z,14.00
2018-03-28T09:53:01.385Z,13.50
2018-03-28T09:55:29.198Z,13.70
2018-03-28T09:57:56.733Z,13.70
2018-03-28T10:00:26.559Z,14.40
2018-03-28T10:02:59.299Z,14.20
2018-03-28T10:05:32.719Z,15.40
2018-03-28T10:08:00.235Z,15.40
2018-03-28T10:10:27.335Z,14.70
2018-03-28T10:12:54.375Z,14.70
2018-03-28T10:15:21.908Z,15.00
2018-03-28T10:17:50.248Z,15.20
2018-03-28T10:20:17.744Z,15.20
2018-03-28T10:22:44.827Z,16.10
2018-03-28T10:25:12.326Z,16.50
2018-03-28T10:27:40.312Z,16.00
2018-03-28T10:30:08.156Z,16.00
2018-03-28T10:32:35.197Z,16.00
2018-03-28T10:35:02.788Z,15.60
2018-03-28T10:37:30.212Z,15.10
2018-03-28T10:39:57.735Z,14.60
2018-03-28T10:42:25.228Z,14.10
2018-03-28T10:44:52.802Z,14.00
2018-03-28T10:47:19.840Z,14.20
2018-03-28T10:49:47.413Z,14.20
2018-03-28T10:52:15.719Z,14.10
2018-03-28T10:54:42.801Z,14.00
2018-03-28T10:57:10.279Z,14.20
2018-03-28T10:59:37.354Z,15.10
2018-03-28T11:02:04.442Z,15.30
2018-03-28T11:04:31.520Z,14.90
2018-03-28T11:06:58.629Z,15.00
2018-03-28T11:09:25.713Z,15.00
2018-03-28T11:11:52.780Z,15.80
2018-03-28T11:14:19.951Z,16.20
2018-03-28T11:16:47.024Z,15.60
2018-03-28T11:19:14.166Z,14.90
2018-03-28T11:24:40.484Z,14.00
2018-03-28T11:27:08.795Z,13.90
2018-03-28T11:29:36.329Z,13.90
2018-03-28T11:32:04.259Z,13.70
2018-03-28T11:34:31.757Z,13.50
2018-03-28T11:36:59.346Z,13.40
2018-03-28T11:39:26.890Z,13.50
2018-03-28T11:41:54.422Z,13.30
2018-03-28T11:44:22.694Z,13.50
2018-03-28T11:46:50.253Z,13.50
2018-03-28T11:49:19.007Z,13.30
2018-03-28T11:51:46.992Z,13.30
2018-03-28T12:09:05.053Z,13.00
2018-03-28T12:11:32.630Z,13.00
2018-03-28T12:14:00.189Z,12.90
2018-03-28T12:16:27.738Z,13.10
2018-03-28T12:18:55.312Z,13.00
2018-03-28T12:21:22.896Z,13.20
2018-03-28T12:23:50.432Z,13.30
2018-03-28T12:26:17.952Z,13.30
2018-03-28T12:28:46.285Z,13.30
2018-03-28T12:31:13.824Z,13.30
2018-03-28T12:33:41.409Z,13.20
2018-03-28T12:36:08.955Z,13.40
2018-03-28T12:38:36.504Z,13.40
2018-03-28T12:41:04.057Z,13.40
2018-03-28T12:43:31.566Z,13.30
2018-03-28T12:45:59.883Z,13.30
2018-03-28T12:48:27.430Z,13.20
2018-03-28T12:50:54.965Z,13.30
2018-03-28T12:53:23.280Z,13.20
2018-03-28T12:55:50.840Z,13.20
2018-03-28T12:58:18.384Z,13.20
2018-03-28T13:00:45.941Z,13.30
2018-03-28T13:03:13.503Z,13.30
2018-03-28T13:05:40.992Z,13.20
2018-03-28T13:08:08.542Z,13.30
2018-03-28T13:10:36.113Z,13.30
2018-03-28T13:22:17.021Z,13.30
2018-03-28T13:24:44.627Z,13.30
2018-03-28T13:27:12.109Z,13.40
2018-03-28T13:44:56.565Z,13.00
2018-03-28T13:47:24.120Z,13.00
2018-03-28T13:49:52.432Z,12.90
2018-03-28T13:52:19.967Z,12.90
2018-03-28T13:54:47.505Z,12.90
2018-03-28T13:57:15.821Z,12.90
2018-03-28T13:59:43.324Z,12.90
2018-03-28T14:02:10.897Z,12.90
2018-03-28T14:04:39.245Z,12.60
2018-03-28T14:07:07.094Z,12.60
2018-03-28T14:54:46.080Z,11.20
2018-03-28T14:57:13.573Z,11.10
2018-03-28T15:05:50.854Z,11.20
2018-03-28T15:08:18.426Z,11.10
2018-03-28T15:10:45.904Z,11.20
2018-03-28T15:13:13.450Z,11.20
2018-03-28T15:15:40.940Z,11.20
2018-03-28T19:47:52.426Z,9.60
